createdAt,value
2019-04-14T00:01:17.259Z,32.88
2019-04-14T00:06:18.079Z,30.48
2019-04-14T00:08:47.955Z,31.40
2019-04-14T00:11:17.333Z,33.08
2019-04-14T00:13:47.759Z,31.40
2019-04-14T00:18:46.880Z,31.05
2019-04-14T00:21:17.267Z,33.23
2019-04-14T00:23:47.900Z,31.55
2019-04-14T00:26:27.203Z,32.83
2019-04-14T00:28:57.895Z,32.47
2019-04-14T00:31:28.706Z,31.33
2019-04-14T00:34:00.770Z,29.37
2019-04-14T00:36:32.595Z,28.60
2019-04-14T00:39:05.320Z,30.40
2019-04-14T00:41:58.215Z,28.92
2019-04-14T00:44:43.000Z,29.75
2019-04-14T00:47:20.047Z,28.33
2019-04-14T00:49:50.774Z,29.05
2019-04-14T00:52:21.160Z,28.80
2019-04-14T00:54:50.604Z,30.37
2019-04-14T00:57:20.140Z,28.90
2019-04-14T00:59:50.784Z,28.60
2019-04-14T01:02:21.254Z,29.70
2019-04-14T01:04:51.376Z,31.90
2019-04-14T01:07:21.627Z,31.13
2019-04-14T01:09:55.358Z,30.77
2019-04-14T01:12:25.753Z,31.57
2019-04-14T01:14:55.988Z,29.73
2019-04-14T01:17:26.505Z,32.13
2019-04-14T01:19:56.961Z,30.82
2019-04-14T01:22:27.078Z,31.45
2019-04-14T01:24:57.470Z,30.67
2019-04-14T01:27:27.787Z,30.72
2019-04-14T01:30:02.695Z,30.97
2019-04-14T01:32:32.727Z,29.66
2019-04-14T01:35:03.381Z,33.92
2019-04-14T01:37:33.293Z,34.20
2019-04-14T01:40:07.437Z,32.50
2019-04-14T01:42:37.744Z,33.80
2019-04-14T01:45:08.133Z,33.87
2019-04-14T01:47:37.727Z,33.07
2019-04-14T01:50:08.307Z,31.80
2019-04-14T01:52:52.274Z,34.73
2019-04-14T01:55:33.039Z,33.47
2019-04-14T01:58:05.303Z,33.55
2019-04-14T02:00:51.393Z,32.70
2019-04-14T02:03:21.723Z,34.67
2019-04-14T02:05:51.726Z,35.00
2019-04-14T02:08:21.998Z,34.43
2019-04-14T02:10:52.055Z,37.30
2019-04-14T02:13:22.539Z,37.53
2019-04-14T02:15:52.870Z,38.35
2019-04-14T02:18:22.933Z,37.20
2019-04-14T02:20:53.487Z,34.13
2019-04-14T02:25:53.628Z,36.23
2019-04-14T02:28:24.242Z,35.88
2019-04-14T02:31:08.244Z,38.95
2019-04-14T02:41:29.983Z,37.48
2019-04-14T02:44:01.670Z,37.73
2019-04-14T02:51:27.575Z,37.25
2019-04-14T02:54:06.811Z,36.15
2019-04-14T02:56:43.434Z,37.17
2019-04-14T03:01:31.633Z,37.93
2019-04-14T03:03:57.910Z,36.68
2019-04-14T03:06:50.404Z,38.17
2019-04-14T03:11:32.653Z,38.25
2019-04-14T03:14:11.784Z,38.55
2019-04-14T03:19:30.880Z,39.58
2019-04-14T03:22:07.515Z,39.83
2019-04-14T03:24:39.100Z,38.33
2019-04-14T03:27:22.821Z,39.45
2019-04-14T03:35:03.589Z,42.45
2019-04-14T03:42:37.695Z,41.88
2019-04-14T03:45:11.147Z,42.13
2019-04-14T03:50:06.166Z,43.60
2019-04-14T03:52:40.829Z,43.15
2019-04-14T03:54:57.095Z,42.75
2019-04-14T03:57:10.457Z,43.58
2019-04-14T03:59:39.865Z,43.67
2019-04-14T04:02:09.675Z,45.28
2019-04-14T04:04:40.150Z,44.60
2019-04-14T04:07:10.320Z,43.38
2019-04-14T04:09:49.636Z,42.97
2019-04-14T04:12:20.278Z,45.10
2019-04-14T04:17:23.259Z,42.17
2019-04-14T04:19:57.668Z,47.15
2019-04-14T04:22:45.593Z,46.95
2019-04-14T04:25:20.369Z,45.15
2019-04-14T04:27:56.892Z,47.55
2019-04-14T04:30:34.111Z,46.90
2019-04-14T04:33:19.965Z,48.80
2019-04-14T04:36:01.093Z,46.63
2019-04-14T04:38:33.332Z,47.58
2019-04-14T04:41:03.756Z,46.83
2019-04-14T04:46:04.894Z,44.63
2019-04-14T04:48:34.970Z,45.38
2019-04-14T04:51:05.005Z,46.23
2019-04-14T04:53:35.344Z,46.53
2019-04-14T04:56:05.733Z,44.63
2019-04-14T05:01:04.133Z,44.08
2019-04-14T05:03:34.493Z,44.67
2019-04-14T05:06:35.359Z,45.55
2019-04-14T05:09:07.917Z,45.52
2019-04-14T05:11:39.017Z,44.83
2019-04-14T05:14:26.340Z,43.38
2019-04-14T05:16:55.691Z,42.48
2019-04-14T05:19:31.147Z,45.05
2019-04-14T05:24:25.269Z,40.90
2019-04-14T05:26:54.877Z,44.77
2019-04-14T05:29:31.840Z,42.27
2019-04-14T05:32:02.357Z,44.08
2019-04-14T05:34:32.651Z,42.95
2019-04-14T05:37:02.891Z,42.30
2019-04-14T05:39:32.924Z,41.67
2019-04-14T05:42:08.622Z,41.17
2019-04-14T05:44:34.046Z,40.60
2019-04-14T05:47:04.400Z,39.23
2019-04-14T05:49:39.168Z,40.60
2019-04-14T05:52:05.588Z,39.10
2019-04-14T05:54:36.025Z,30.93
2019-04-14T05:57:06.514Z,38.40
2019-04-14T05:59:37.521Z,39.50
2019-04-14T06:02:07.268Z,40.23
2019-04-14T06:04:37.389Z,38.38
2019-04-14T06:07:06.724Z,41.53
2019-04-14T06:09:36.070Z,39.13
2019-04-14T06:12:05.366Z,39.03
2019-04-14T06:14:34.697Z,37.53
2019-04-14T06:17:04.003Z,40.10
2019-04-14T06:19:38.118Z,37.23
2019-04-14T06:22:04.396Z,39.23
2019-04-14T06:24:33.721Z,40.73
2019-04-14T06:27:03.046Z,37.20
2019-04-14T06:29:32.348Z,37.25
2019-04-14T06:32:03.474Z,36.38
2019-04-14T06:34:34.423Z,39.40
2019-04-14T06:37:23.790Z,38.60
2019-04-14T06:40:02.791Z,35.83
2019-04-14T06:42:32.111Z,37.00
2019-04-14T06:45:02.837Z,37.73
2019-04-14T06:47:32.205Z,37.03
2019-04-14T06:50:02.836Z,37.67
2019-04-14T06:55:00.592Z,37.57
2019-04-14T06:57:30.386Z,37.23
2019-04-14T07:00:00.655Z,36.23
2019-04-14T07:02:30.150Z,36.97
2019-04-14T07:04:59.507Z,36.08
2019-04-14T07:07:28.834Z,36.05
2019-04-14T07:10:04.888Z,34.75
2019-04-14T07:12:35.359Z,34.70
2019-04-14T07:15:07.156Z,34.75
2019-04-14T07:17:36.451Z,34.45
2019-04-14T07:20:13.183Z,34.73
2019-04-14T07:22:48.632Z,33.35
2019-04-14T07:25:17.951Z,31.40
2019-04-14T07:27:47.255Z,33.75
2019-04-14T07:30:24.343Z,31.75
2019-04-14T07:32:57.815Z,32.45
2019-04-14T07:35:43.405Z,33.30
2019-04-14T07:38:23.242Z,34.18
2019-04-14T07:41:06.085Z,32.03
2019-04-14T07:43:37.041Z,33.78
2019-04-14T07:48:53.151Z,31.23
2019-04-14T07:51:33.310Z,32.15
2019-04-14T07:54:07.387Z,32.87
2019-04-14T07:56:41.248Z,33.30
2019-04-14T07:59:23.401Z,32.83
2019-04-14T08:01:55.452Z,29.35
2019-04-14T08:04:26.390Z,33.05
2019-04-14T08:06:56.179Z,33.38
2019-04-14T08:09:25.485Z,34.27
2019-04-14T08:11:54.837Z,31.60
2019-04-14T08:14:24.140Z,32.58
2019-04-14T08:16:53.539Z,33.35
2019-04-14T08:19:23.902Z,31.60
2019-04-14T08:21:53.223Z,31.82
2019-04-14T08:24:24.143Z,31.85
2019-04-14T08:26:53.468Z,30.75
2019-04-14T08:29:22.765Z,30.85
2019-04-14T08:31:52.080Z,30.32
2019-04-14T08:34:21.394Z,29.10
2019-04-14T08:36:50.716Z,26.68
2019-04-14T08:42:06.056Z,29.12
2019-04-14T08:44:42.993Z,27.85
2019-04-14T08:47:16.843Z,26.35
2019-04-14T08:49:59.734Z,26.45
2019-04-14T08:52:31.596Z,24.43
2019-04-14T08:55:02.699Z,25.82
2019-04-14T08:57:49.902Z,24.55
2019-04-14T09:00:20.937Z,24.75
2019-04-14T09:05:30.651Z,23.50
2019-04-14T09:08:01.636Z,22.50
2019-04-14T09:10:32.861Z,22.93
2019-04-14T09:13:02.150Z,23.05
2019-04-14T09:15:31.505Z,21.05
2019-04-14T09:18:01.737Z,21.90
2019-04-14T09:20:31.885Z,20.23
2019-04-14T09:23:01.984Z,21.07
2019-04-14T09:25:32.214Z,20.92
2019-04-14T09:28:02.228Z,20.05
2019-04-14T09:30:32.383Z,20.43
2019-04-14T09:33:05.688Z,20.35
2019-04-14T09:35:35.033Z,20.27
2019-04-14T09:38:04.487Z,19.50
2019-04-14T09:40:33.874Z,18.45
2019-04-14T09:43:04.355Z,18.70
2019-04-14T09:45:33.682Z,19.60
2019-04-14T09:48:03.466Z,19.06
2019-04-14T09:50:33.802Z,18.30
2019-04-14T09:53:03.767Z,17.42
2019-04-14T09:55:33.798Z,19.57
2019-04-14T09:58:04.107Z,19.20
2019-04-14T10:00:35.264Z,19.27
2019-04-14T10:03:04.745Z,18.93
2019-04-14T10:05:34.344Z,17.65
2019-04-14T10:08:04.646Z,18.27
2019-04-14T10:10:34.721Z,18.02
2019-04-14T10:13:05.134Z,18.70
2019-04-14T10:15:34.988Z,16.95
2019-04-14T10:18:05.230Z,17.23
2019-04-14T10:20:35.329Z,16.90
2019-04-14T10:23:05.460Z,16.82
2019-04-14T10:25:35.558Z,16.50
2019-04-14T10:28:05.803Z,16.93
2019-04-14T10:30:35.855Z,16.45
2019-04-14T10:33:06.087Z,17.92
2019-04-14T10:35:36.134Z,16.65
2019-04-14T10:38:06.376Z,15.73
2019-04-14T10:40:36.497Z,15.50
2019-04-14T10:43:06.740Z,15.10
2019-04-14T10:45:38.651Z,15.08
2019-04-14T10:48:07.991Z,15.40
2019-04-14T10:50:37.289Z,15.65
2019-04-14T10:53:07.230Z,15.38
2019-04-14T10:55:37.451Z,15.50
2019-04-14T10:58:07.606Z,14.68
2019-04-14T11:00:37.718Z,13.03
2019-04-14T11:03:07.954Z,13.05
2019-04-14T11:05:39.683Z,14.80
2019-04-14T11:08:09.015Z,16.75
2019-04-14T11:10:38.373Z,15.98
2019-04-14T11:13:08.610Z,15.55
2019-04-14T11:15:38.670Z,16.15
2019-04-14T11:18:08.931Z,15.93
2019-04-14T11:20:38.954Z,14.25
2019-04-14T11:23:09.225Z,14.53
2019-04-14T11:25:39.267Z,13.65
2019-04-14T11:28:09.515Z,13.60
2019-04-14T11:30:39.652Z,14.98
2019-04-14T11:33:11.383Z,14.20
2019-04-14T11:35:51.273Z,12.93
2019-04-14T11:38:24.996Z,14.47
2019-04-14T11:40:55.971Z,14.53
2019-04-14T11:43:25.284Z,16.05
2019-04-14T11:45:54.657Z,15.68
2019-04-14T11:48:25.805Z,15.30
2019-04-14T11:50:55.158Z,14.70
2019-04-14T11:53:24.481Z,14.58
2019-04-14T11:55:53.790Z,14.58
2019-04-14T11:58:23.090Z,14.25
2019-04-14T12:01:00.074Z,14.07
2019-04-14T12:03:39.826Z,13.83
2019-04-14T12:06:29.082Z,14.63
2019-04-14T12:09:16.155Z,15.00
2019-04-14T12:11:45.449Z,13.08
2019-04-14T12:14:14.745Z,13.13
2019-04-14T12:16:44.074Z,13.98
2019-04-14T12:19:13.402Z,13.98
2019-04-14T12:21:42.715Z,13.90
2019-04-14T12:24:12.990Z,14.57
2019-04-14T12:26:42.958Z,14.70
2019-04-14T12:29:14.113Z,13.97
2019-04-14T12:31:44.088Z,13.25
2019-04-14T12:34:18.256Z,13.58
2019-04-14T12:36:47.758Z,13.60
2019-04-14T12:39:22.877Z,14.73
2019-04-14T12:41:59.822Z,13.80
2019-04-14T12:44:45.652Z,13.65
2019-04-14T12:47:39.542Z,14.53
2019-04-14T12:50:10.153Z,13.80
2019-04-14T12:52:39.445Z,13.22
2019-04-14T12:55:08.831Z,13.05
2019-04-14T12:57:39.798Z,14.28
2019-04-14T13:00:11.139Z,13.10
2019-04-14T13:02:42.138Z,13.50
2019-04-14T13:05:11.542Z,13.62
2019-04-14T13:07:40.865Z,13.00
2019-04-14T13:10:10.421Z,12.90
2019-04-14T13:12:39.733Z,13.85
2019-04-14T13:15:09.326Z,14.18
2019-04-14T13:17:38.638Z,13.40
2019-04-14T13:20:09.198Z,14.23
2019-04-14T13:22:38.576Z,13.93
2019-04-14T13:25:08.884Z,14.65
2019-04-14T13:27:38.377Z,14.75
2019-04-14T13:30:11.442Z,13.93
2019-04-14T13:33:50.387Z,13.98
2019-04-14T13:35:18.199Z,14.43
2019-04-14T13:37:47.515Z,14.63
2019-04-14T13:40:17.458Z,15.45
2019-04-14T13:42:49.398Z,15.28
2019-04-14T13:45:18.735Z,15.40
2019-04-14T13:47:48.056Z,15.32
2019-04-14T13:50:17.969Z,15.15
2019-04-14T13:52:48.151Z,15.03
2019-04-14T13:55:18.399Z,15.25
2019-04-14T13:57:48.467Z,14.93
2019-04-14T14:00:19.127Z,16.17
2019-04-14T14:02:48.733Z,16.75
2019-04-14T14:05:18.904Z,17.45
2019-04-14T14:07:49.033Z,16.80
2019-04-14T14:10:19.338Z,16.30
2019-04-14T14:12:59.585Z,16.97
2019-04-14T14:15:42.378Z,15.32
2019-04-14T14:18:31.590Z,16.02
2019-04-14T14:21:02.541Z,15.72
2019-04-14T14:23:49.538Z,17.07
2019-04-14T14:26:23.554Z,17.62
2019-04-14T14:28:52.870Z,17.77
2019-04-14T14:31:22.381Z,17.73
2019-04-14T14:33:51.695Z,18.10
2019-04-14T14:36:22.536Z,17.42
2019-04-14T14:38:51.881Z,16.00
2019-04-14T14:41:21.239Z,17.75
2019-04-14T14:43:51.286Z,18.26
2019-04-14T14:46:29.024Z,17.67
2019-04-14T14:49:00.010Z,18.05
2019-04-14T14:54:02.075Z,18.55
2019-04-14T14:56:31.470Z,17.73
2019-04-14T14:59:00.808Z,16.70
2019-04-14T15:01:30.103Z,18.75
2019-04-14T15:03:59.418Z,18.42
2019-04-14T15:06:28.743Z,17.40
2019-04-14T15:08:58.242Z,16.97
2019-04-14T15:11:27.547Z,17.85
2019-04-14T15:13:56.878Z,17.12
2019-04-14T15:16:26.272Z,18.07
2019-04-14T15:18:55.575Z,17.60
2019-04-14T15:21:24.952Z,17.55
2019-04-14T15:23:54.359Z,17.40
2019-04-14T15:26:24.462Z,17.32
2019-04-14T15:28:54.631Z,17.62
2019-04-14T15:31:24.856Z,18.05
2019-04-14T15:33:54.969Z,16.05
2019-04-14T15:36:25.362Z,17.74
2019-04-14T15:38:55.248Z,17.10
2019-04-14T15:41:25.495Z,17.27
2019-04-14T15:43:55.561Z,16.02
2019-04-14T15:46:25.701Z,16.50
2019-04-14T15:48:56.118Z,16.70
2019-04-14T15:51:26.096Z,16.85
2019-04-14T15:53:56.139Z,15.43
2019-04-14T15:56:31.060Z,14.90
2019-04-14T15:59:08.056Z,15.18
2019-04-14T16:01:38.996Z,15.07
2019-04-14T16:04:15.861Z,14.75
2019-04-14T16:06:46.805Z,17.37
2019-04-14T16:09:35.755Z,15.83
2019-04-14T16:12:09.368Z,15.93
2019-04-14T16:14:40.413Z,16.48
2019-04-14T16:17:27.293Z,16.73
2019-04-14T16:19:59.248Z,16.23
2019-04-14T16:22:28.610Z,15.13
2019-04-14T16:24:57.941Z,15.23
2019-04-14T16:27:35.927Z,15.00
2019-04-14T16:30:07.825Z,15.32
2019-04-14T16:32:54.049Z,15.53
2019-04-14T16:35:30.617Z,15.55
2019-04-14T16:37:59.938Z,14.13
2019-04-14T16:40:29.333Z,14.83
2019-04-14T16:42:59.103Z,15.50
2019-04-14T16:45:29.153Z,14.83
2019-04-14T16:47:59.351Z,15.00
2019-04-14T16:50:29.425Z,14.75
2019-04-14T16:53:01.196Z,13.50
2019-04-14T16:55:33.209Z,13.78
2019-04-14T16:58:04.158Z,14.90
2019-04-14T17:00:37.113Z,14.95
2019-04-14T17:03:06.257Z,16.30
2019-04-14T17:05:35.621Z,15.43
2019-04-14T17:08:04.930Z,16.30
2019-04-14T17:10:34.337Z,15.80
2019-04-14T17:13:03.935Z,14.68
2019-04-14T17:15:34.962Z,13.80
2019-04-14T17:18:05.979Z,15.10
2019-04-14T17:20:36.934Z,15.00
2019-04-14T17:23:07.953Z,15.70
2019-04-14T17:25:38.967Z,14.10
2019-04-14T17:28:15.898Z,15.40
2019-04-14T17:30:46.904Z,14.07
2019-04-14T17:36:09.998Z,13.38
2019-04-14T17:38:40.993Z,14.20
2019-04-14T17:41:26.639Z,14.60
2019-04-14T17:43:57.708Z,13.15
2019-04-14T17:46:28.637Z,12.65
2019-04-14T17:49:02.435Z,12.98
2019-04-14T17:51:37.505Z,12.37
2019-04-14T17:54:08.614Z,11.63
2019-04-14T17:56:39.559Z,11.60
2019-04-14T18:01:46.156Z,12.07
2019-04-14T18:04:30.683Z,11.78
2019-04-14T18:07:01.638Z,12.23
2019-04-14T18:09:49.016Z,13.13
2019-04-14T18:12:22.851Z,12.37
2019-04-14T18:14:53.783Z,12.85
2019-04-14T18:17:27.676Z,14.00
2019-04-14T18:20:01.385Z,13.48
2019-04-14T18:22:30.961Z,13.20
2019-04-14T18:25:00.345Z,13.65
2019-04-14T18:27:31.291Z,13.35
2019-04-14T18:32:32.988Z,12.73
2019-04-14T18:35:06.709Z,13.70
2019-04-14T18:37:40.528Z,13.00
2019-04-14T18:40:26.383Z,13.58
2019-04-14T18:43:02.819Z,13.62
2019-04-14T18:45:36.681Z,12.93
2019-04-14T18:48:24.187Z,14.03
2019-04-14T18:51:11.827Z,13.05
2019-04-14T18:53:45.512Z,13.10
2019-04-14T18:56:25.566Z,13.28
2019-04-14T18:59:12.575Z,13.35
2019-04-14T19:01:43.572Z,11.90
2019-04-14T19:04:12.877Z,12.35
2019-04-14T19:06:42.204Z,13.26
2019-04-14T19:09:11.610Z,13.43
2019-04-14T19:11:45.446Z,13.70
2019-04-14T19:14:16.415Z,12.25
2019-04-14T19:16:47.426Z,13.32
2019-04-14T19:21:46.840Z,13.38
2019-04-14T19:24:16.146Z,13.53
2019-04-14T19:26:45.463Z,13.13
2019-04-14T19:29:15.025Z,14.23
2019-04-14T19:31:44.355Z,14.20
2019-04-14T19:34:13.672Z,13.38
2019-04-14T19:36:42.992Z,14.45
2019-04-14T19:39:13.222Z,13.90
2019-04-14T19:41:42.608Z,14.13
2019-04-14T19:44:11.901Z,14.68
2019-04-14T19:46:42.614Z,14.40
2019-04-14T19:49:11.924Z,14.13
2019-04-14T19:51:41.352Z,15.18
2019-04-14T19:54:10.653Z,14.70
2019-04-14T19:56:40.682Z,13.22
2019-04-14T19:59:10.699Z,12.40
2019-04-14T20:01:40.916Z,13.32
2019-04-14T20:04:11.025Z,12.90
2019-04-14T20:06:41.283Z,12.93
2019-04-14T20:09:11.340Z,13.25
2019-04-14T20:11:41.485Z,12.60
2019-04-14T20:14:11.753Z,13.85
2019-04-14T20:16:45.949Z,14.46
2019-04-14T20:19:19.647Z,12.98
2019-04-14T20:21:53.396Z,13.98
2019-04-14T20:24:39.798Z,13.15
2019-04-14T20:27:13.303Z,14.20
2019-04-14T20:29:47.083Z,13.18
2019-04-14T20:32:16.968Z,13.88
2019-04-14T20:34:46.282Z,15.40
2019-04-14T20:37:15.794Z,15.98
2019-04-14T20:39:45.147Z,15.43
2019-04-14T20:42:14.526Z,15.20
2019-04-14T20:44:43.848Z,15.60
2019-04-14T20:47:13.756Z,15.90
2019-04-14T20:49:44.783Z,14.65
2019-04-14T20:52:14.149Z,15.13
2019-04-14T20:54:44.098Z,14.94
2019-04-14T20:57:14.374Z,14.13
2019-04-14T20:59:44.467Z,15.10
2019-04-14T21:02:22.332Z,13.93
2019-04-14T21:05:09.630Z,14.13
2019-04-14T21:07:46.369Z,13.68
2019-04-14T21:10:17.363Z,11.80
2019-04-14T21:15:23.778Z,9.98
2019-04-14T21:18:03.226Z,9.95
2019-04-14T21:20:34.316Z,9.33
2019-04-14T21:23:05.260Z,9.23
2019-04-14T21:25:36.222Z,10.50
2019-04-14T21:30:37.307Z,9.48
2019-04-14T21:33:11.299Z,10.10
2019-04-14T21:35:49.414Z,10.18
2019-04-14T21:38:20.952Z,10.38
2019-04-14T21:40:57.346Z,10.70
2019-04-14T21:43:26.668Z,10.82
2019-04-14T21:45:55.974Z,10.13
2019-04-14T21:48:25.279Z,10.55
2019-04-14T21:50:54.608Z,11.05
2019-04-14T21:53:23.924Z,11.80
2019-04-14T21:55:53.230Z,11.73
2019-04-14T21:58:27.169Z,11.97
2019-04-14T22:01:33.910Z,12.15
2019-04-14T22:04:18.184Z,11.93
2019-04-14T22:06:55.794Z,12.35
2019-04-14T22:09:32.949Z,12.37
2019-04-14T22:12:04.054Z,11.70
2019-04-14T22:14:33.390Z,12.63
2019-04-14T22:17:02.691Z,12.50
2019-04-14T22:19:38.411Z,13.45
2019-04-14T22:22:07.750Z,11.57
2019-04-14T22:24:37.045Z,12.40
2019-04-14T22:27:06.381Z,13.20
2019-04-14T22:29:35.679Z,11.97
2019-04-14T22:32:04.978Z,12.73
2019-04-14T22:34:34.286Z,12.40
2019-04-14T22:37:03.599Z,11.50
2019-04-14T22:39:32.983Z,13.05
2019-04-14T22:42:02.394Z,13.00
2019-04-14T22:44:31.711Z,13.30
2019-04-14T22:47:01.024Z,11.95
2019-04-14T22:49:30.436Z,13.28
2019-04-14T22:51:59.775Z,13.22
2019-04-14T22:54:29.096Z,13.53
2019-04-14T22:56:58.421Z,13.18
2019-04-14T22:59:27.732Z,13.08
2019-04-14T23:02:01.501Z,12.68
2019-04-14T23:04:32.480Z,14.00
2019-04-14T23:09:48.438Z,14.60
2019-04-14T23:12:28.157Z,14.70
2019-04-14T23:15:08.097Z,14.40
2019-04-14T23:17:51.088Z,15.10
2019-04-14T23:20:24.641Z,14.03
2019-04-14T23:23:04.129Z,14.43
2019-04-14T23:25:33.641Z,14.18
2019-04-14T23:28:03.018Z,16.48
2019-04-14T23:30:32.319Z,15.83
2019-04-14T23:33:01.645Z,15.87
2019-04-14T23:35:31.964Z,15.30
2019-04-14T23:38:02.268Z,17.13
2019-04-14T23:40:31.839Z,15.88
2019-04-14T23:43:01.131Z,14.45
2019-04-14T23:45:30.423Z,15.65
2019-04-14T23:47:59.733Z,15.18
2019-04-14T23:50:29.138Z,14.40
2019-04-14T23:52:58.516Z,15.50
2019-04-14T23:55:27.919Z,14.85
2019-04-14T23:57:57.372Z,15.48
